Latexo, TX (75849)

10:09 AM CST on December 19, 2014 (GMT -0600)
Golden Acres, Houston County Lake | Change Station
CLOSE
Current Station
Personal Weather Station
Location: Crockett, TX
Elevation: 272 ft
Nearby Weather Stations

Elev 272 ft 31.41 °N, 95.59 °W | Updated 6 minutes ago

Rain
Rain
49.5 °F
Feels Like 46 °F
N
7.8
Wind Variable Wind from ESE

Today
High -- | Low -- °F
--% Chance of Precip.
Yesterday
High -- | Low -- °F
Precip. -- in
7:15 AM 5:22 PM
Waning Crescent, 7% visible
Pressure 30.20 in
Visibility -9999.0 miles
Clouds
Windchill 46 °F
Dew Point 49 °F
Humidity 99%
Rainfall 0.36 in
Snow Depth Not available.
UV Not available.
Pollen .80 out of 12
Air Quality Not available.
Flu Activity Not available.
METAR KDKR 191555Z AUTO 02012KT RA 11/11 A3020 RMK AO2 P0003

More Conditions Fewer Conditions

Pressure 30.20 in
Visibility -9999.0 miles
Clouds
Windchill 46 °F
Dew Point 49 °F
Humidity 99%
Rainfall 0.36 in
Snow Depth Not available.
UV Not available.
Pollen .80 out of 12
Air Quality Not available.
Flu Activity Not available.
METAR KDKR 191555Z AUTO 02012KT RA 11/11 A3020 RMK AO2 P0003

More Conditions Fewer Conditions

10-Day Weather Forecast

Almanac

Astronomy

Dec. 19, 2014 Rise Set
Actual Time
Civil Twilight
Nautical Twilight
Astronomical Twilight
Moon
Length of Visible Light
Length of Day
Tomorrow will be .
, % of the Moon is Illuminated

Today's Extremes

State Highs State Lows

Community

WunderPhotos

Upload Photos

1,779,001 photos uploaded!

WunderBlogs® & News

Nearby

Air Quality

  Air Quality AQ Index Pollutant
Not available.

Snow Depth

Station Depth Elevation

Earthquake Activity

City Distance Mag. Time & Date
Minimum magnitude displayed is 2.5.

Coastal Water Temperatures

Place Temperature

Nearby Weather Stations